Time;durP1;ratioP1;P1;durP2;ratioP2;P2;SDS_P1;SDS_P2;PMS_P1;PMS_P2;Temp;Humidity;BMP_temperature;BMP_pressure;BME280_temperature;BME280_humidity;BME280_pressure;Samples;Min_cycle;Max_cycle;Signal;HPM_P1;HPM_P2
2022/04/17 11:54:53;;;;;;;1.60;1.50;;;15.40;99.90;;;;;;5070625;28;20554;-70
2022/04/17 11:57:20;;;;;;;1.35;1.20;;;14.90;99.90;;;;;;5070650;28;20259;-70
2022/04/17 11:59:57;;;;;;;1.42;1.33;;;15.10;99.90;;;;;;5070572;28;20222;-70
2022/04/17 12:02:25;;;;;;;2.28;2.00;;;15.10;99.90;;;;;;5070560;28;20170;-70
2022/04/17 12:04:53;;;;;;;1.30;1.30;;;15.30;99.90;;;;;;5070483;28;20164;-70
2022/04/17 12:07:23;;;;;;;1.50;1.50;;;15.30;99.90;;;;;;5070483;28;20172;-70
2022/04/17 12:09:49;;;;;;;4.45;1.58;;;15.40;99.90;;;;;;5070329;28;20180;-70
2022/04/17 12:12:16;;;;;;;1.15;1.15;;;15.40;99.90;;;;;;5070612;28;20575;-70
2022/04/17 12:14:43;;;;;;;1.35;1.35;;;15.50;99.90;;;;;;5070061;28;20199;-70
2022/04/17 12:17:09;;;;;;;1.55;1.40;;;15.60;99.90;;;;;;5068894;28;20671;-70
2022/04/17 12:19:35;;;;;;;1.40;1.30;;;15.70;99.90;;;;;;5070269;28;20251;-70
2022/04/17 12:22:14;;;;;;;1.38;1.30;;;15.80;99.90;;;;;;5070007;28;20172;-71
2022/04/17 12:24:44;;;;;;;4.18;2.50;;;15.90;99.90;;;;;;5069956;28;20263;-70
2022/04/17 12:27:19;;;;;;;1.50;1.50;;;16.00;99.90;;;;;;5069845;28;20165;-70
2022/04/17 12:30:01;;;;;;;1.35;1.27;;;16.10;99.90;;;;;;5069740;28;20176;-70
2022/04/17 12:32:27;;;;;;;1.23;1.23;;;16.20;99.90;;;;;;5068312;28;20192;-70
2022/04/17 12:35:22;;;;;;;1.67;1.58;;;16.30;99.90;;;;;;5069770;28;20176;-70
2022/04/17 12:37:48;;;;;;;1.50;1.40;;;16.60;99.90;;;;;;5068653;28;20653;-70
2022/04/17 12:40:18;;;;;;;1.42;1.40;;;16.80;99.90;;;;;;5069587;28;20177;-70
2022/04/17 12:42:44;;;;;;;1.27;1.25;;;17.00;99.90;;;;;;5069668;28;20169;-70
2022/04/17 12:45:21;;;;;;;1.73;1.63;;;17.10;99.90;;;;;;5069680;28;20183;-70
2022/04/17 12:48:06;;;;;;;1.70;1.60;;;17.20;99.90;;;;;;5069493;28;20195;-70
2022/04/17 12:50:33;;;;;;;1.75;1.65;;;17.30;99.90;;;;;;5069465;28;20179;-68
2022/04/17 12:53:00;;;;;;;1.20;1.20;;;17.50;99.90;;;;;;5069315;28;20247;-68
2022/04/17 12:55:34;;;;;;;1.83;1.73;;;17.60;99.90;;;;;;5069509;28;20179;-68
2022/04/17 12:58:01;;;;;;;1.40;1.40;;;17.60;99.90;;;;;;5069414;28;20159;-68
2022/04/17 13:00:28;;;;;;;1.80;1.55;;;17.70;99.90;;;;;;5069338;28;20522;-68
2022/04/17 13:03:10;;;;;;;1.70;1.60;;;17.80;99.90;;;;;;5069284;28;20182;-68
2022/04/17 13:05:36;;;;;;;1.20;1.20;;;17.90;99.90;;;;;;5058234;28;20180;-68
2022/04/17 13:08:06;;;;;;;1.85;1.35;;;18.00;99.90;;;;;;5056057;28;20173;-68
2022/04/17 13:10:32;;;;;;;1.30;1.30;;;18.20;99.90;;;;;;5055983;28;20169;-68
2022/04/17 13:12:58;;;;;;;2.17;2.08;;;18.30;98.30;;;;;;5055868;28;20192;-68
2022/04/17 13:15:34;;;;;;;1.30;1.30;;;18.30;98.80;;;;;;5055872;28;20172;-68
2022/04/17 13:18:01;;;;;;;4.68;1.67;;;18.40;99.90;;;;;;5055915;28;20214;-68
2022/04/17 13:20:33;;;;;;;1.10;1.10;;;18.40;98.90;;;;;;5055736;28;20165;-68
2022/04/17 13:22:58;;;;;;;1.13;1.13;;;18.50;96.50;;;;;;5056009;28;20165;-69
2022/04/17 13:25:24;;;;;;;1.17;1.17;;;18.50;96.30;;;;;;5054435;28;20173;-68
2022/04/17 13:27:51;;;;;;;1.52;1.25;;;18.60;94.80;;;;;;5055508;28;20188;-68
2022/04/17 13:30:19;;;;;;;3.33;1.10;;;18.70;94.90;;;;;;5055605;28;20168;-68
2022/04/17 13:32:45;;;;;;;1.00;1.00;;;18.80;97.00;;;;;;5055327;28;20222;-68
2022/04/17 13:35:11;;;;;;;1.50;1.35;;;19.00;96.90;;;;;;5055567;28;20165;-68
2022/04/17 13:40:21;;;;;;;1.45;1.10;;;19.50;96.80;;;;;;5055425;28;20176;-68
2022/04/17 13:42:47;;;;;;;1.00;1.00;;;19.70;93.80;;;;;;5054128;28;20173;-68
2022/04/17 13:45:13;;;;;;;3.28;2.15;;;19.80;92.50;;;;;;5055353;28;20229;-69
2022/04/17 13:47:39;;;;;;;3.55;1.42;;;19.90;91.20;;;;;;5055274;28;20522;-68
2022/04/17 13:50:07;;;;;;;1.45;1.35;;;19.90;92.20;;;;;;5055317;28;20167;-69
2022/04/17 13:52:34;;;;;;;1.33;1.23;;;19.90;93.10;;;;;;5055017;28;20169;-69
2022/04/17 13:55:02;;;;;;;1.70;1.33;;;20.00;90.20;;;;;;5053900;28;20176;-68
2022/04/17 13:57:28;;;;;;;1.00;1.00;;;20.10;89.00;;;;;;5055185;28;20206;-69
2022/04/17 13:59:53;;;;;;;1.33;1.23;;;20.20;89.90;;;;;;5055120;28;20172;-68
2022/04/17 14:02:19;;;;;;;1.00;1.00;;;20.40;90.70;;;;;;5055054;28;20164;-68
2022/04/17 14:04:45;;;;;;;1.40;1.25;;;20.40;83.70;;;;;;5055026;28;20684;-69
2022/04/17 14:07:10;;;;;;;1.40;1.40;;;20.50;85.50;;;;;;5054967;28;20177;-68
2022/04/17 14:09:41;;;;;;;2.30;2.10;;;20.60;90.60;;;;;;5054865;28;20176;-69
2022/04/17 14:12:09;;;;;;;1.35;1.25;;;20.70;83.10;;;;;;5054759;28;20222;-69
2022/04/17 14:14:36;;;;;;;1.20;1.10;;;20.80;86.40;;;;;;5054768;28;20204;-69
2022/04/17 14:17:02;;;;;;;1.00;1.00;;;20.90;81.30;;;;;;5053732;28;20167;-69
2022/04/17 14:19:27;;;;;;;1.35;1.25;;;20.90;74.20;;;;;;5054641;28;20247;-68
2022/04/17 14:21:53;;;;;;;1.10;1.10;;;20.90;75.50;;;;;;5054664;28;20169;-68
2022/04/17 14:24:19;;;;;;;1.15;1.13;;;20.80;77.10;;;;;;5054577;28;20164;-68
2022/04/17 14:26:44;;;;;;;1.10;1.10;;;20.90;77.90;;;;;;5053198;28;20172;-68
2022/04/17 14:29:10;;;;;;;1.08;1.08;;;21.20;74.80;;;;;;5054398;28;20176;-68
2022/04/17 14:31:35;;;;;;;2.95;1.05;;;21.30;77.70;;;;;;5054382;28;20196;-68
2022/04/17 14:34:01;;;;;;;1.52;1.02;;;21.40;73.60;;;;;;5054376;28;20694;-68
2022/04/17 14:36:27;;;;;;;1.30;1.20;;;21.50;75.20;;;;;;5054204;28;20675;-68
2022/04/17 14:38:53;;;;;;;1.00;1.00;;;21.50;70.10;;;;;;5054308;28;20253;-68
2022/04/17 14:41:22;;;;;;;1.10;1.10;;;21.60;71.70;;;;;;5054155;28;20550;-68
2022/04/17 14:43:48;;;;;;;0.90;0.90;;;21.50;70.60;;;;;;5054105;28;20169;-69
2022/04/17 14:46:14;;;;;;;1.13;0.98;;;21.70;66.80;;;;;;5054103;28;20180;-68
2022/04/17 14:48:39;;;;;;;1.00;1.00;;;21.80;69.50;;;;;;5054040;28;20172;-68
2022/04/17 14:51:05;;;;;;;1.08;1.08;;;21.80;70.50;;;;;;5054054;28;20274;-69
2022/04/17 14:53:32;;;;;;;2.80;1.05;;;21.90;67.00;;;;;;5053750;28;20712;-68
2022/04/17 14:56:00;;;;;;;0.80;0.80;;;21.80;64.90;;;;;;5053919;28;20167;-68
2022/04/17 14:58:26;;;;;;;1.20;1.10;;;21.70;61.30;;;;;;5053887;28;20227;-68
2022/04/17 15:00:52;;;;;;;1.52;1.00;;;21.50;63.20;;;;;;5053933;28;20203;-68
2022/04/17 15:03:18;;;;;;;1.00;1.00;;;21.40;64.10;;;;;;5053704;28;20172;-68
2022/04/17 15:05:44;;;;;;;0.90;0.90;;;21.50;66.70;;;;;;5054223;28;20196;-68
2022/04/17 15:08:09;;;;;;;1.63;1.20;;;21.50;67.30;;;;;;5053688;28;20171;-68
2022/04/17 15:10:38;;;;;;;1.17;1.08;;;21.70;70.80;;;;;;5053655;28;20176;-68
2022/04/17 15:13:05;;;;;;;1.38;0.90;;;21.80;66.30;;;;;;5053594;28;20192;-68
2022/04/17 15:15:31;;;;;;;0.90;0.90;;;21.80;64.20;;;;;;5053678;28;20165;-69
2022/04/17 15:17:57;;;;;;;1.40;1.30;;;21.90;63.50;;;;;;5053573;28;20293;-68
2022/04/17 15:20:26;;;;;;;2.33;1.35;;;21.90;61.70;;;;;;5052246;28;20642;-68
2022/04/17 15:22:55;;;;;;;1.60;1.50;;;22.00;60.90;;;;;;5053568;28;20168;-68
2022/04/17 15:25:23;;;;;;;0.95;0.95;;;22.00;62.00;;;;;;5052331;28;20173;-68
2022/04/17 15:27:49;;;;;;;1.52;1.42;;;21.90;58.70;;;;;;5053253;28;20172;-68
2022/04/17 15:33:37;;;;;;;1.35;1.35;;;22.00;59.00;;;;;;5053292;28;20231;-68
2022/04/17 15:36:02;;;;;;;1.17;1.17;;;22.10;60.20;;;;;;5053380;28;20165;-68
2022/04/17 15:38:28;;;;;;;1.48;0.93;;;22.10;58.50;;;;;;5053253;28;20200;-68
2022/04/17 15:40:54;;;;;;;0.80;0.80;;;22.30;58.90;;;;;;5053230;28;20207;-68
2022/04/17 15:48:49;;;;;;;1.15;1.15;;;22.20;59.60;;;;;;5053322;28;20222;-68
2022/04/17 15:51:16;;;;;;;1.10;1.10;;;22.30;57.90;;;;;;5053242;28;20176;-68
2022/04/17 15:53:42;;;;;;;1.20;1.20;;;22.20;58.40;;;;;;5052966;28;20371;-68
2022/04/17 15:56:08;;;;;;;1.35;1.35;;;22.10;57.80;;;;;;5053249;28;20164;-68
2022/04/17 15:58:35;;;;;;;1.00;1.00;;;22.10;58.30;;;;;;5053077;28;20164;-68
2022/04/17 16:01:01;;;;;;;0.88;0.88;;;22.20;57.80;;;;;;5053093;28;20172;-68
2022/04/17 16:03:27;;;;;;;1.15;1.15;;;22.00;56.20;;;;;;5053038;28;20164;-68
2022/04/17 16:05:53;;;;;;;1.38;1.27;;;21.90;55.40;;;;;;5053139;28;20213;-68
2022/04/17 16:08:19;;;;;;;1.73;1.27;;;21.90;55.50;;;;;;5053032;28;20200;-68
2022/04/17 16:10:44;;;;;;;0.90;0.90;;;22.00;56.40;;;;;;5053065;28;20176;-68
2022/04/17 16:13:10;;;;;;;2.40;0.90;;;21.90;54.60;;;;;;5053004;28;20204;-68
2022/04/17 16:15:36;;;;;;;1.02;0.93;;;22.00;54.20;;;;;;5052939;28;20165;-68
2022/04/17 16:18:02;;;;;;;1.10;1.08;;;22.00;56.10;;;;;;5053011;28;20497;-66
2022/04/17 16:20:27;;;;;;;1.05;0.90;;;21.90;55.40;;;;;;5052846;28;20172;-68
2022/04/17 16:22:53;;;;;;;0.90;0.90;;;22.00;55.40;;;;;;5052964;28;20200;-68
2022/04/17 16:25:19;;;;;;;1.02;1.00;;;22.10;54.80;;;;;;5052864;28;20164;-69
2022/04/17 16:27:45;;;;;;;0.80;0.80;;;21.80;54.60;;;;;;5052904;28;20703;-68
2022/04/17 16:30:12;;;;;;;1.10;1.00;;;21.80;53.80;;;;;;5052822;28;20176;-68
2022/04/17 16:32:38;;;;;;;1.20;1.10;;;21.80;54.10;;;;;;5052764;28;20199;-68
2022/04/17 16:35:05;;;;;;;0.90;0.90;;;21.90;54.30;;;;;;5052750;28;20173;-68
2022/04/17 16:37:33;;;;;;;1.30;1.30;;;21.90;54.40;;;;;;5052631;28;20248;-68
2022/04/17 16:39:59;;;;;;;1.05;1.05;;;21.90;54.00;;;;;;5053232;28;20193;-68
2022/04/17 16:42:25;;;;;;;1.02;1.02;;;21.80;53.80;;;;;;5056079;28;20241;-68
2022/04/17 16:44:51;;;;;;;1.20;1.20;;;21.80;53.00;;;;;;5055430;28;20184;-68
2022/04/17 16:47:16;;;;;;;3.92;1.20;;;21.50;53.10;;;;;;5056435;28;20168;-70
2022/04/17 16:49:42;;;;;;;3.15;1.20;;;21.30;53.60;;;;;;5055113;28;20191;-68
2022/04/17 16:52:07;;;;;;;1.20;1.20;;;21.10;55.00;;;;;;5056432;28;20187;-68
2022/04/17 16:54:33;;;;;;;1.35;1.35;;;21.20;54.40;;;;;;5056153;28;20220;-68
2022/04/17 16:59:11;;;;;;;0.98;0.98;;;21.20;55.40;;;;;;5056358;28;20239;-68
2022/04/17 16:59:44;;;;;;;1.58;1.48;;;21.10;54.30;;;;;;5056069;28;20177;-68
2022/04/17 17:02:10;;;;;;;1.67;1.58;;;21.10;54.70;;;;;;5056190;28;20283;-68
2022/04/17 17:04:36;;;;;;;1.27;1.10;;;21.10;54.60;;;;;;5056132;28;20180;-68
2022/04/17 17:07:01;;;;;;;1.30;1.20;;;21.10;54.60;;;;;;5054857;28;20172;-68
2022/04/17 17:09:27;;;;;;;1.70;1.60;;;21.00;54.00;;;;;;5056101;28;20179;-68
2022/04/17 17:11:52;;;;;;;2.50;1.60;;;20.80;53.60;;;;;;5056024;28;20184;-68
2022/04/17 17:14:18;;;;;;;1.70;1.60;;;20.90;55.50;;;;;;5055928;28;20196;-68
2022/04/17 17:16:43;;;;;;;3.45;1.40;;;20.80;55.80;;;;;;5057129;28;20165;-68
2022/04/17 17:19:14;;;;;;;4.82;1.50;;;20.80;56.30;;;;;;5068761;28;20183;-68
2022/04/17 17:21:40;;;;;;;1.38;1.30;;;20.70;54.50;;;;;;5059298;28;20168;-68
2022/04/17 17:24:05;;;;;;;1.17;1.17;;;20.80;55.50;;;;;;5055760;28;20169;-68
2022/04/17 17:26:31;;;;;;;1.70;1.50;;;20.70;54.70;;;;;;5055691;28;20171;-68
2022/04/17 17:28:56;;;;;;;1.52;1.38;;;20.60;56.90;;;;;;5055666;28;20169;-68
2022/04/17 17:31:22;;;;;;;1.75;1.13;;;20.60;54.50;;;;;;5055672;28;20271;-68
2022/04/17 17:33:47;;;;;;;1.23;1.17;;;20.50;55.20;;;;;;5055473;28;20184;-68
2022/04/17 17:36:13;;;;;;;1.20;1.10;;;20.40;55.00;;;;;;5055591;28;20172;-68
2022/04/17 17:38:39;;;;;;;0.85;0.85;;;20.30;55.60;;;;;;5055496;28;20169;-68
2022/04/17 17:41:06;;;;;;;1.45;1.20;;;20.40;56.20;;;;;;5055336;28;20195;-68
2022/04/17 17:43:32;;;;;;;1.27;1.20;;;20.30;55.30;;;;;;5055424;28;20218;-68
2022/04/17 17:46:01;;;;;;;2.28;1.35;;;20.10;55.50;;;;;;5055377;28;20165;-68
2022/04/17 17:48:27;;;;;;;1.30;1.30;;;20.00;56.30;;;;;;5055283;28;20175;-68
2022/04/17 17:50:52;;;;;;;1.08;1.00;;;19.90;55.60;;;;;;5053976;28;20168;-68
2022/04/17 17:53:18;;;;;;;1.40;1.40;;;19.70;57.30;;;;;;5053793;28;20620;-68
2022/04/17 17:55:44;;;;;;;2.88;1.20;;;19.50;56.60;;;;;;5055279;28;20173;-68
2022/04/17 17:58:09;;;;;;;1.27;1.27;;;19.30;57.10;;;;;;5055168;28;20164;-68
2022/04/17 18:00:35;;;;;;;1.25;1.20;;;19.10;56.50;;;;;;5055088;28;20636;-68
2022/04/17 18:03:02;;;;;;;1.80;1.70;;;18.90;57.70;;;;;;5055124;28;20179;-68
2022/04/17 18:05:27;;;;;;;1.02;1.02;;;18.70;56.90;;;;;;5053997;28;20531;-68
2022/04/17 18:16:08;;;;;;;1.50;1.40;;;17.30;60.70;;;;;;5054874;28;20705;-68
2022/04/17 18:18:34;;;;;;;1.17;1.17;;;17.00;62.40;;;;;;5054798;28;20665;-68
2022/04/17 18:21:01;;;;;;;1.45;1.42;;;16.70;64.90;;;;;;5054722;28;20244;-68
2022/04/17 18:23:27;;;;;;;2.05;1.95;;;16.50;67.10;;;;;;5054684;28;20223;-66
2022/04/17 18:25:52;;;;;;;2.08;1.98;;;16.30;66.70;;;;;;5054505;28;20634;-66
2022/04/17 18:28:18;;;;;;;2.33;1.90;;;16.00;65.70;;;;;;5054575;28;20264;-67
2022/04/17 18:30:44;;;;;;;2.03;1.92;;;15.80;64.40;;;;;;5054530;28;20165;-67
2022/04/17 18:33:10;;;;;;;2.63;2.08;;;15.50;66.80;;;;;;5054422;28;20197;-66
